createdAt,value
2022-09-28T00:00:34.393Z,98097.53
2022-09-28T00:03:00.960Z,98100.81
2022-09-28T00:05:27.497Z,98094.03
2022-09-28T00:07:54.196Z,98088.94
2022-09-28T00:10:23.775Z,98093.63
2022-09-28T00:12:51.609Z,98098.72
2022-09-28T00:15:18.494Z,98101.19
2022-09-28T00:17:45.032Z,98100.38
2022-09-28T00:20:12.374Z,98099.75
2022-09-28T00:22:39.204Z,98097.91
2022-09-28T00:25:06.734Z,98090.09
2022-09-28T00:27:33.182Z,98094.81
2022-09-28T00:30:00.164Z,98094.53
2022-09-28T00:32:26.913Z,98102.06
2022-09-28T00:34:53.430Z,98092.84
2022-09-28T00:37:20.441Z,98090.50
2022-09-28T00:39:48.630Z,98100.53
2022-09-28T00:42:21.277Z,98099.84
2022-09-28T00:44:48.576Z,98107.19
2022-09-28T00:47:17.665Z,98103.28
2022-09-28T00:49:50.152Z,98108.97
2022-09-28T00:52:22.846Z,98110.59
2022-09-28T00:54:50.904Z,98106.28
2022-09-28T00:57:17.598Z,98113.44
2022-09-28T00:59:44.381Z,98104.84
2022-09-28T01:02:10.967Z,98109.75
2022-09-28T01:04:38.266Z,98106.69
2022-09-28T01:07:04.869Z,98108.91
2022-09-28T01:09:32.573Z,98107.66
2022-09-28T01:11:58.984Z,98106.47
2022-09-28T01:14:26.054Z,98099.25
2022-09-28T01:17:06.707Z,98097.63
2022-09-28T01:19:52.008Z,98097.88
2022-09-28T01:22:27.282Z,98092.16
2022-09-28T01:25:07.607Z,98095.41
2022-09-28T01:27:44.930Z,98088.00
2022-09-28T01:30:15.587Z,98091.69
2022-09-28T01:32:52.385Z,98077.97
2022-09-28T01:35:43.252Z,98077.94
2022-09-28T01:38:22.079Z,98079.19
2022-09-28T01:40:49.362Z,98079.38
2022-09-28T01:43:20.869Z,98075.50
2022-09-28T01:45:50.502Z,98074.47
2022-09-28T01:48:21.184Z,98067.94
2022-09-28T01:50:51.634Z,98069.41
2022-09-28T01:53:24.175Z,98065.53
2022-09-28T01:55:55.531Z,98063.53
2022-09-28T01:58:28.938Z,98070.47
2022-09-28T02:01:04.776Z,98071.91
2022-09-28T02:03:36.116Z,98078.59
2022-09-28T02:06:16.877Z,98074.97
2022-09-28T02:08:50.997Z,98079.88
2022-09-28T02:11:19.785Z,98087.19
2022-09-28T02:13:49.773Z,98081.66
2022-09-28T02:16:25.508Z,98084.72
2022-09-28T02:18:52.275Z,98085.53
2022-09-28T02:21:29.768Z,98079.00
2022-09-28T02:23:58.319Z,98085.31
2022-09-28T02:26:29.374Z,98081.84
2022-09-28T02:28:55.947Z,98087.34
2022-09-28T02:31:22.392Z,98077.97
2022-09-28T02:33:51.437Z,98078.38
2022-09-28T02:36:17.919Z,98082.06
2022-09-28T02:38:44.470Z,98080.22
2022-09-28T02:41:35.735Z,98081.91
2022-09-28T02:44:39.613Z,98077.41
2022-09-28T02:47:16.080Z,98070.84
2022-09-28T02:49:50.399Z,98077.00
2022-09-28T02:52:44.950Z,98072.13
2022-09-28T02:55:29.015Z,98074.97
2022-09-28T02:58:19.561Z,98074.75
2022-09-28T03:01:09.248Z,98073.34
2022-09-28T03:03:45.807Z,98071.09
2022-09-28T03:06:23.737Z,98077.44
2022-09-28T03:08:54.799Z,98075.41
2022-09-28T03:11:26.915Z,98077.03
2022-09-28T03:13:53.629Z,98075.66
2022-09-28T03:16:20.613Z,98073.84
2022-09-28T03:18:47.601Z,98075.09
2022-09-28T03:21:15.186Z,98077.13
2022-09-28T03:23:42.061Z,98077.56
2022-09-28T03:26:10.728Z,98072.03
2022-09-28T03:28:37.316Z,98076.16
2022-09-28T03:31:04.609Z,98074.50
2022-09-28T03:33:31.060Z,98074.69
2022-09-28T03:35:57.657Z,98079.00
2022-09-28T03:38:24.197Z,98080.81
2022-09-28T03:40:58.211Z,98080.19
2022-09-28T03:43:25.712Z,98081.63
2022-09-28T03:45:56.513Z,98076.94
2022-09-28T03:48:26.751Z,98080.41
2022-09-28T03:50:58.647Z,98075.09
2022-09-28T03:53:25.524Z,98079.81
2022-09-28T03:55:53.282Z,98077.34
2022-09-28T03:58:22.949Z,98074.88
2022-09-28T04:00:50.332Z,98075.88
2022-09-28T04:03:16.938Z,98088.16
2022-09-28T04:05:53.423Z,98081.00
2022-09-28T04:08:20.275Z,98081.44
2022-09-28T04:10:47.235Z,98083.06
2022-09-28T04:13:14.114Z,98090.00
2022-09-28T04:15:40.544Z,98081.81
2022-09-28T04:18:13.520Z,98090.56
2022-09-28T04:20:46.026Z,98091.41
2022-09-28T04:23:12.491Z,98093.00
2022-09-28T04:25:39.655Z,98091.78
2022-09-28T04:28:25.336Z,98090.28
2022-09-28T04:30:52.135Z,98079.66
2022-09-28T04:33:18.546Z,98088.84
2022-09-28T04:35:45.018Z,98081.47
2022-09-28T04:38:11.443Z,98083.69
2022-09-28T04:40:37.966Z,98080.59
2022-09-28T04:43:04.490Z,98074.66
2022-09-28T04:45:31.081Z,98078.28
2022-09-28T04:47:57.629Z,98083.22
2022-09-28T04:50:24.047Z,98078.84
2022-09-28T04:52:50.905Z,98089.84
2022-09-28T04:55:17.497Z,98086.56
2022-09-28T04:57:44.060Z,98085.66
2022-09-28T05:00:11.600Z,98079.88
2022-09-28T05:02:38.125Z,98087.19
2022-09-28T05:05:05.309Z,98081.09
2022-09-28T05:07:31.799Z,98086.00
2022-09-28T05:09:58.347Z,98084.03
2022-09-28T05:12:25.018Z,98079.72
2022-09-28T05:14:54.415Z,98085.88
2022-09-28T05:17:20.942Z,98088.13
2022-09-28T05:19:47.395Z,98093.78
2022-09-28T05:22:14.985Z,98087.38
2022-09-28T05:24:46.377Z,98098.13
2022-09-28T05:27:12.866Z,98087.06
2022-09-28T05:29:39.347Z,98092.91
2022-09-28T05:32:06.161Z,98098.38
2022-09-28T05:34:32.700Z,98103.38
2022-09-28T05:36:59.198Z,98100.09
2022-09-28T05:39:25.712Z,98099.06
2022-09-28T05:41:52.600Z,98095.97
2022-09-28T05:44:19.242Z,98099.44
2022-09-28T05:46:45.881Z,98100.47
2022-09-28T05:49:12.983Z,98100.91
2022-09-28T05:51:39.417Z,98100.31
2022-09-28T05:54:06.419Z,98113.41
2022-09-28T05:56:33.058Z,98115.25
2022-09-28T05:58:59.618Z,98120.53
2022-09-28T06:01:26.464Z,98119.53
2022-09-28T06:03:52.982Z,98120.91
2022-09-28T06:06:19.785Z,98118.72
2022-09-28T06:08:48.366Z,98114.72
2022-09-28T06:11:15.052Z,98122.16
2022-09-28T06:13:41.498Z,98120.25
2022-09-28T06:16:08.552Z,98125.06
2022-09-28T06:18:35.534Z,98122.94
2022-09-28T06:21:03.321Z,98120.28
2022-09-28T06:23:29.912Z,98122.94
2022-09-28T06:25:58.728Z,98124.06
2022-09-28T06:28:26.756Z,98132.25
2022-09-28T06:30:54.078Z,98127.69
2022-09-28T06:33:20.707Z,98131.88
2022-09-28T06:35:48.002Z,98132.72
2022-09-28T06:38:14.727Z,98129.09
2022-09-28T06:40:41.566Z,98128.94
2022-09-28T06:43:15.022Z,98133.34
2022-09-28T06:45:42.849Z,98131.56
2022-09-28T06:48:10.429Z,98140.72
2022-09-28T06:50:40.053Z,98142.19
2022-09-28T06:53:09.560Z,98131.53
2022-09-28T06:55:38.923Z,98135.22
2022-09-28T06:58:07.262Z,98137.78
2022-09-28T07:00:37.489Z,98142.41
2022-09-28T07:03:07.219Z,98142.47
2022-09-28T07:05:36.784Z,98142.47
2022-09-28T07:08:05.007Z,98154.44
2022-09-28T07:10:32.295Z,98146.00
2022-09-28T07:13:04.998Z,98156.38
2022-09-28T07:15:32.146Z,98162.31
2022-09-28T07:18:03.315Z,98163.19
2022-09-28T07:20:31.296Z,98163.38
2022-09-28T07:23:10.889Z,98160.34
2022-09-28T07:25:45.559Z,98160.75
2022-09-28T07:28:12.367Z,98162.91
2022-09-28T07:30:38.983Z,98163.00
2022-09-28T07:33:07.258Z,98161.31
2022-09-28T07:35:34.410Z,98161.16
2022-09-28T07:38:04.500Z,98168.66
2022-09-28T07:40:51.032Z,98169.31
2022-09-28T07:43:20.814Z,98178.31
2022-09-28T07:45:48.689Z,98172.03
2022-09-28T07:48:16.435Z,98174.91
2022-09-28T07:50:47.891Z,98175.84
2022-09-28T07:53:14.520Z,98179.03
2022-09-28T07:55:41.211Z,98182.69
2022-09-28T07:58:07.667Z,98194.06
2022-09-28T08:00:34.521Z,98193.34
2022-09-28T08:03:02.801Z,98193.38
2022-09-28T08:05:31.281Z,98191.50
2022-09-28T08:07:59.752Z,98196.75
2022-09-28T08:10:26.619Z,98202.28
2022-09-28T08:12:59.193Z,98204.38
2022-09-28T08:15:33.714Z,98195.81
2022-09-28T08:18:02.733Z,98203.31
2022-09-28T08:20:51.630Z,98204.78
2022-09-28T08:23:18.794Z,98199.06
2022-09-28T08:25:52.045Z,98207.06
2022-09-28T08:28:18.821Z,98209.56
2022-09-28T08:30:46.351Z,98206.47
2022-09-28T08:33:14.228Z,98204.44
2022-09-28T08:35:43.719Z,98207.69
2022-09-28T08:38:10.743Z,98207.28
2022-09-28T08:40:44.925Z,98203.38
2022-09-28T08:43:49.667Z,98206.84
2022-09-28T08:46:22.689Z,98204.19
2022-09-28T08:49:30.807Z,98202.75
2022-09-28T08:52:06.221Z,98214.66
2022-09-28T08:54:42.572Z,98206.03
2022-09-28T08:57:14.869Z,98211.13
2022-09-28T08:59:54.366Z,98212.13
2022-09-28T09:02:39.481Z,98205.41
2022-09-28T09:05:10.211Z,98208.41
2022-09-28T09:08:24.594Z,98207.13
2022-09-28T09:11:07.665Z,98206.16
2022-09-28T09:13:34.178Z,98200.16
2022-09-28T09:16:24.857Z,98208.91
2022-09-28T09:19:13.225Z,98208.59
2022-09-28T09:22:00.452Z,98213.19
2022-09-28T09:24:45.431Z,98215.88
2022-09-28T09:27:17.891Z,98212.41
2022-09-28T09:29:47.422Z,98214.06
2022-09-28T09:32:32.997Z,98211.19
2022-09-28T09:35:07.719Z,98223.31
2022-09-28T09:37:56.489Z,98210.47
2022-09-28T09:40:36.627Z,98213.59
2022-09-28T09:43:19.016Z,98217.16
2022-09-28T09:45:58.777Z,98221.13
2022-09-28T09:48:30.722Z,98216.78
2022-09-28T09:50:59.825Z,98228.16
2022-09-28T09:53:49.479Z,98228.69
2022-09-28T09:56:47.005Z,98225.09
2022-09-28T09:59:19.978Z,98224.38
2022-09-28T10:01:49.545Z,98231.97
2022-09-28T10:04:20.222Z,98227.47
2022-09-28T10:06:48.305Z,98235.97
2022-09-28T10:09:46.134Z,98237.56
2022-09-28T10:12:16.279Z,98247.81
2022-09-28T10:14:42.749Z,98248.69
2022-09-28T10:17:09.886Z,98247.28
2022-09-28T10:19:36.721Z,98241.16
2022-09-28T10:22:05.437Z,98247.25
2022-09-28T10:24:34.748Z,98232.94
2022-09-28T10:27:06.686Z,98245.22
2022-09-28T10:29:40.638Z,98243.28
2022-09-28T10:32:22.075Z,98241.66
2022-09-28T10:34:50.878Z,98243.47
2022-09-28T10:37:18.539Z,98247.13
2022-09-28T10:39:53.659Z,98246.13
2022-09-28T10:42:29.708Z,98239.78
2022-09-28T10:45:00.231Z,98245.38
2022-09-28T10:47:30.501Z,98248.09
2022-09-28T10:49:56.988Z,98240.50
2022-09-28T10:52:31.664Z,98236.63
2022-09-28T10:54:58.721Z,98244.88
2022-09-28T10:57:36.802Z,98240.63
2022-09-28T11:00:06.912Z,98238.81
2022-09-28T11:02:36.699Z,98242.06
2022-09-28T11:05:05.682Z,98239.56
2022-09-28T11:07:33.630Z,98233.41
2022-09-28T11:10:01.050Z,98235.78
2022-09-28T11:12:43.491Z,98229.97
2022-09-28T11:15:18.280Z,98226.81
2022-09-28T11:17:45.188Z,98235.78
2022-09-28T11:20:34.104Z,98231.69
2022-09-28T11:23:15.923Z,98237.47
2022-09-28T11:25:42.433Z,98241.34
2022-09-28T11:28:24.372Z,98234.91
2022-09-28T11:30:52.883Z,98230.94
2022-09-28T11:33:29.658Z,98233.00
2022-09-28T11:36:08.994Z,98227.28
2022-09-28T11:38:42.806Z,98236.22
2022-09-28T11:41:24.212Z,98226.34
2022-09-28T11:44:12.580Z,98237.75
2022-09-28T11:46:59.979Z,98235.69
2022-09-28T11:49:46.997Z,98244.13
2022-09-28T11:52:27.552Z,98241.84
2022-09-28T11:55:09.996Z,98245.44
2022-09-28T11:57:38.801Z,98253.75
2022-09-28T12:00:14.160Z,98249.75
2022-09-28T12:02:56.763Z,98257.53
2022-09-28T12:05:32.654Z,98255.31
2022-09-28T12:08:25.604Z,98256.63
2022-09-28T12:11:06.204Z,98252.91
2022-09-28T12:13:35.444Z,98254.25
2022-09-28T12:16:38.441Z,98259.66
2022-09-28T12:18:56.973Z,98261.44
2022-09-28T12:22:01.311Z,98261.09
2022-09-28T12:24:31.429Z,98257.97
2022-09-28T12:27:06.364Z,98258.28
2022-09-28T12:29:39.258Z,98259.06
2022-09-28T12:32:14.714Z,98250.84
2022-09-28T12:34:42.683Z,98256.34
2022-09-28T12:37:21.392Z,98255.44
2022-09-28T12:40:18.227Z,98250.75
2022-09-28T12:42:57.222Z,98251.84
2022-09-28T12:45:38.679Z,98251.03
2022-09-28T12:48:28.435Z,98245.81
2022-09-28T12:51:10.323Z,98242.16
2022-09-28T12:53:47.702Z,98237.03
2022-09-28T12:56:37.711Z,98252.03
2022-09-28T12:59:18.096Z,98239.34
2022-09-28T13:02:21.906Z,98241.66
2022-09-28T13:05:05.368Z,98237.25
2022-09-28T13:07:44.803Z,98245.59
2022-09-28T13:10:42.821Z,98241.84
2022-09-28T13:13:26.407Z,98244.19
2022-09-28T13:16:13.202Z,98232.63
2022-09-28T13:18:56.636Z,98234.69
2022-09-28T13:21:48.865Z,98229.03
2022-09-28T13:24:32.050Z,98224.44
2022-09-28T13:27:06.950Z,98220.06
2022-09-28T13:29:34.994Z,98225.53
2022-09-28T13:32:04.698Z,98220.56
2022-09-28T13:34:33.738Z,98228.25
2022-09-28T13:37:20.103Z,98227.97
2022-09-28T13:39:59.969Z,98225.25
2022-09-28T13:42:51.249Z,98227.31
2022-09-28T13:45:53.854Z,98231.00
2022-09-28T13:48:22.486Z,98239.53
2022-09-28T13:50:56.344Z,98235.38
2022-09-28T13:53:48.094Z,98236.03
2022-09-28T13:56:39.746Z,98236.41
2022-09-28T13:59:12.416Z,98231.50
2022-09-28T14:01:47.641Z,98231.31
2022-09-28T14:04:22.898Z,98234.19
2022-09-28T14:06:57.579Z,98226.00
2022-09-28T14:09:41.546Z,98237.00
2022-09-28T14:12:27.701Z,98230.44
2022-09-28T14:14:54.719Z,98237.34
2022-09-28T14:17:21.240Z,98232.97
2022-09-28T14:19:52.496Z,98242.56
2022-09-28T14:22:24.898Z,98235.75
2022-09-28T14:25:09.910Z,98238.84
2022-09-28T14:28:16.903Z,98232.25
2022-09-28T14:30:43.432Z,98227.91
2022-09-28T14:33:19.091Z,98221.47
2022-09-28T14:35:49.897Z,98223.09
2022-09-28T14:38:37.950Z,98223.63
2022-09-28T14:41:17.724Z,98228.97
2022-09-28T14:43:44.280Z,98228.50
2022-09-28T14:46:19.765Z,98231.16
2022-09-28T14:48:57.520Z,98222.69
2022-09-28T14:51:26.672Z,98223.88
2022-09-28T14:53:54.910Z,98220.75
2022-09-28T14:56:22.449Z,98226.81
2022-09-28T14:58:58.729Z,98230.41
2022-09-28T15:01:26.579Z,98236.66
2022-09-28T15:03:59.707Z,98236.19
2022-09-28T15:06:27.724Z,98237.06
2022-09-28T15:08:54.200Z,98226.56
2022-09-28T15:11:23.324Z,98234.78
2022-09-28T15:13:53.318Z,98236.25
2022-09-28T15:16:23.851Z,98239.53
2022-09-28T15:19:15.804Z,98239.53
2022-09-28T15:21:43.251Z,98236.50
2022-09-28T15:24:34.145Z,98243.47
2022-09-28T15:27:03.509Z,98243.50
2022-09-28T15:29:33.426Z,98237.84
2022-09-28T15:32:00.049Z,98230.06
2022-09-28T15:34:54.513Z,98224.16
2022-09-28T15:37:30.048Z,98219.47
2022-09-28T15:39:57.421Z,98214.81
2022-09-28T15:42:23.895Z,98224.38
2022-09-28T15:45:01.928Z,98230.75
2022-09-28T15:47:29.593Z,98221.97
2022-09-28T15:49:58.639Z,98210.53
2022-09-28T15:52:36.547Z,98206.47
2022-09-28T15:55:06.305Z,98211.44
2022-09-28T15:57:37.519Z,98216.81
2022-09-28T16:00:21.158Z,98222.56
2022-09-28T16:03:16.701Z,98223.94
2022-09-28T16:05:52.437Z,98224.56
2022-09-28T16:08:27.509Z,98231.91
2022-09-28T16:11:09.115Z,98231.59
2022-09-28T16:13:37.068Z,98232.78
2022-09-28T16:16:05.118Z,98221.78
2022-09-28T16:18:33.778Z,98217.88
2022-09-28T16:21:26.468Z,98214.88
2022-09-28T16:23:55.717Z,98199.94
2022-09-28T16:26:34.058Z,98194.84
2022-09-28T16:29:02.141Z,98195.28
2022-09-28T16:31:34.335Z,98202.31
2022-09-28T16:34:11.761Z,98199.06
2022-09-28T16:36:46.066Z,98203.78
2022-09-28T16:39:14.286Z,98199.25
2022-09-28T16:41:42.313Z,98192.91
2022-09-28T16:44:29.465Z,98195.34
2022-09-28T16:46:57.550Z,98189.81
2022-09-28T16:49:25.517Z,98192.50
2022-09-28T16:51:52.714Z,98191.88
2022-09-28T16:54:40.541Z,98199.69
2022-09-28T16:57:09.079Z,98205.81
2022-09-28T16:59:38.476Z,98219.56
2022-09-28T17:05:13.849Z,98204.09
2022-09-28T17:07:40.589Z,98183.06
2022-09-28T17:10:22.817Z,98197.00
2022-09-28T17:12:49.587Z,98193.53
2022-09-28T17:15:18.648Z,98190.88
2022-09-28T17:17:47.055Z,98187.78
2022-09-28T17:20:20.413Z,98178.38
2022-09-28T17:22:46.963Z,98179.41
2022-09-28T17:25:14.220Z,98184.69
2022-09-28T17:27:43.660Z,98188.19
2022-09-28T17:30:14.167Z,98189.22
2022-09-28T17:32:47.308Z,98183.47
2022-09-28T17:35:25.551Z,98200.28
2022-09-28T17:37:52.724Z,98198.38
2022-09-28T17:40:28.511Z,98203.16
2022-09-28T17:42:56.458Z,98214.25
2022-09-28T17:45:28.592Z,98220.78
2022-09-28T17:47:55.625Z,98222.03
2022-09-28T17:50:25.344Z,98225.72
2022-09-28T17:52:52.905Z,98226.16
2022-09-28T17:55:21.543Z,98216.94
2022-09-28T17:57:48.418Z,98217.53
2022-09-28T18:00:15.969Z,98216.72
2022-09-28T18:02:42.646Z,98221.63
2022-09-28T18:05:11.077Z,98229.03
2022-09-28T18:07:45.375Z,98237.63
2022-09-28T18:10:16.170Z,98248.03
2022-09-28T18:12:43.542Z,98247.00
2022-09-28T18:15:10.529Z,98250.22
2022-09-28T18:17:37.563Z,98256.13
2022-09-28T18:20:06.122Z,98261.00
2022-09-28T18:22:32.736Z,98260.13
2022-09-28T18:24:59.504Z,98267.25
2022-09-28T18:27:29.048Z,98271.31
2022-09-28T18:29:55.778Z,98278.66
2022-09-28T18:32:23.146Z,98271.44
2022-09-28T18:34:49.708Z,98276.09
2022-09-28T18:37:16.281Z,98278.91
2022-09-28T18:39:42.762Z,98291.09
2022-09-28T18:42:10.346Z,98290.59
2022-09-28T18:44:36.861Z,98290.00
2022-09-28T18:47:04.313Z,98283.94
2022-09-28T18:49:31.408Z,98290.66
2022-09-28T18:51:57.911Z,98300.31
2022-09-28T18:54:24.631Z,98291.25
2022-09-28T18:56:55.226Z,98303.31
2022-09-28T18:59:21.874Z,98302.50
2022-09-28T19:01:48.700Z,98302.38
2022-09-28T19:04:15.465Z,98295.97
2022-09-28T19:06:42.782Z,98292.69
2022-09-28T19:09:09.570Z,98300.97
2022-09-28T19:11:36.092Z,98290.59
2022-09-28T19:14:04.376Z,98294.59
2022-09-28T19:16:31.135Z,98287.13
2022-09-28T19:18:58.393Z,98283.47
2022-09-28T19:21:25.470Z,98275.81
2022-09-28T19:23:53.650Z,98279.88
2022-09-28T19:26:22.668Z,98263.00
2022-09-28T19:28:49.227Z,98242.41
2022-09-28T19:31:16.230Z,98252.88
2022-09-28T19:33:43.731Z,98256.84
2022-09-28T19:36:12.963Z,98250.66
2022-09-28T19:38:39.767Z,98242.34
2022-09-28T19:41:09.825Z,98250.06
2022-09-28T19:43:36.437Z,98250.38
2022-09-28T19:46:05.383Z,98245.56
2022-09-28T19:48:32.824Z,98237.28
2022-09-28T19:51:05.257Z,98234.19
2022-09-28T19:53:39.034Z,98235.44
2022-09-28T19:56:05.652Z,98237.53
2022-09-28T19:58:35.409Z,98232.81
2022-09-28T20:01:06.479Z,98238.91
2022-09-28T20:03:33.856Z,98240.50
2022-09-28T20:06:01.724Z,98244.78
2022-09-28T20:08:30.245Z,98242.03
2022-09-28T20:10:57.532Z,98247.00
2022-09-28T20:13:30.420Z,98245.56
2022-09-28T20:15:57.304Z,98253.00
2022-09-28T20:18:23.737Z,98250.34
2022-09-28T20:21:01.305Z,98247.44
2022-09-28T20:23:27.742Z,98241.38
2022-09-28T20:25:54.344Z,98243.31
2022-09-28T20:28:20.756Z,98249.81
2022-09-28T20:30:47.265Z,98250.81
2022-09-28T20:33:19.115Z,98243.53
2022-09-28T20:35:53.946Z,98238.09
2022-09-28T20:38:20.505Z,98237.75
2022-09-28T20:40:48.173Z,98232.09
2022-09-28T20:43:15.146Z,98234.00
2022-09-28T20:45:41.589Z,98232.81
2022-09-28T20:48:08.163Z,98241.97
2022-09-28T20:50:34.692Z,98232.47
2022-09-28T20:53:01.500Z,98237.13
2022-09-28T20:55:27.911Z,98234.56
2022-09-28T20:57:54.547Z,98232.66
2022-09-28T21:00:21.163Z,98241.69
2022-09-28T21:02:51.623Z,98238.88
2022-09-28T21:05:18.078Z,98241.63
2022-09-28T21:07:44.512Z,98242.88
2022-09-28T21:10:10.937Z,98241.97
2022-09-28T21:12:38.847Z,98244.88
2022-09-28T21:15:06.291Z,98231.44
2022-09-28T21:17:32.811Z,98240.88
2022-09-28T21:19:59.247Z,98235.47
2022-09-28T21:22:25.839Z,98244.34
2022-09-28T21:24:52.562Z,98236.94
2022-09-28T21:27:18.983Z,98248.00
2022-09-28T21:29:45.411Z,98244.97
2022-09-28T21:32:11.830Z,98246.59
2022-09-28T21:34:38.275Z,98241.84
2022-09-28T21:37:04.734Z,98242.41
2022-09-28T21:39:31.147Z,98241.59
2022-09-28T21:41:57.643Z,98244.41
2022-09-28T21:44:24.078Z,98246.06
2022-09-28T21:46:50.564Z,98245.44
2022-09-28T21:49:17.183Z,98255.03
2022-09-28T21:51:43.658Z,98262.97
2022-09-28T21:54:10.187Z,98260.88
2022-09-28T21:56:36.745Z,98259.81
2022-09-28T21:59:04.198Z,98262.47
2022-09-28T22:01:31.644Z,98266.44
2022-09-28T22:03:58.293Z,98268.50
2022-09-28T22:06:29.541Z,98268.38
2022-09-28T22:08:56.293Z,98272.50
2022-09-28T22:11:25.156Z,98269.66
2022-09-28T22:13:53.568Z,98275.88
2022-09-28T22:16:22.567Z,98275.03
2022-09-28T22:18:49.569Z,98281.91
2022-09-28T22:21:20.896Z,98289.09
2022-09-28T22:23:47.845Z,98289.91
2022-09-28T22:26:18.899Z,98293.03
2022-09-28T22:28:50.678Z,98293.31
2022-09-28T22:31:18.609Z,98300.22
2022-09-28T22:33:45.320Z,98300.88
2022-09-28T22:36:12.039Z,98283.88
2022-09-28T22:38:39.660Z,98292.00
2022-09-28T22:41:06.134Z,98287.91
2022-09-28T22:43:32.697Z,98287.78
2022-09-28T22:46:07.126Z,98291.78
2022-09-28T22:48:34.769Z,98295.09
2022-09-28T22:51:03.355Z,98294.16
2022-09-28T22:53:29.846Z,98293.78
2022-09-28T22:55:56.686Z,98294.63
2022-09-28T22:58:23.721Z,98298.34
2022-09-28T23:00:50.266Z,98283.00
2022-09-28T23:03:17.114Z,98281.34
2022-09-28T23:05:56.015Z,98287.00
2022-09-28T23:08:23.345Z,98296.97
2022-09-28T23:10:50.650Z,98291.13
2022-09-28T23:13:17.380Z,98293.38
2022-09-28T23:15:43.842Z,98286.81
2022-09-28T23:18:10.294Z,98289.84
2022-09-28T23:20:36.823Z,98293.25
2022-09-28T23:23:04.402Z,98308.38
2022-09-28T23:25:30.796Z,98302.88
2022-09-28T23:27:57.346Z,98303.47
2022-09-28T23:30:24.974Z,98301.19
2022-09-28T23:32:53.239Z,98293.94
2022-09-28T23:35:19.659Z,98295.50
2022-09-28T23:37:50.127Z,98303.47
2022-09-28T23:40:16.773Z,98307.81
2022-09-28T23:42:43.340Z,98316.88
2022-09-28T23:45:09.961Z,98324.22
2022-09-28T23:47:37.347Z,98325.69
2022-09-28T23:50:07.248Z,98330.28
2022-09-28T23:52:34.011Z,98334.81
2022-09-28T23:55:00.411Z,98327.56
2022-09-28T23:57:26.863Z,98325.25
2022-09-28T23:59:53.429Z,98330.72
